This is the latest recevied weather packets stored in our database for station/object OSTR-WX. If no packets are shown the sender has not sent any weather packets the latest 10 day(s).
| Time | Temp. | Humidity | Pressure | Rain* | Wind** | Luminosity | Snow |
|---|---|---|---|---|---|---|---|
| 1777958300 | 9.44° C | 88% | 1012.9 hPa | - | - | - | - |
| 1777957342 | 8.89° C | 89% | 1013.1 hPa | - | - | - | - |
| 1777956385 | 7.78° C | 90% | 1013.2 hPa | - | - | - | - |
| 1777955435 | 7.22° C | 90% | 1013.3 hPa | - | - | - | - |
| 1777955428 | 7.22° C | 90% | 1013.3 hPa | - | - | - | - |
| 1777954472 | 6.67° C | 90% | 1013.5 hPa | - | - | - | - |
| 1777953515 | 6.11° C | 90% | 1013.6 hPa | - | - | - | - |
| 1777942988 | 7.78° C | 86% | 1014 hPa | - | - | - | - |
| 1777940116 | 7.78° C | 86% | 1014.4 hPa | - | - | - | - |
| 1777934374 | 10° C | 81% | 1014.7 hPa | - | - | - | - |
| 1777932460 | 10.56° C | 80% | 1014.7 hPa | - | - | - | - |
| 1777929589 | 11.67° C | 77% | 1014.6 hPa | - | - | - | - |
| 1777922890 | 14.44° C | 65% | 1013.8 hPa | - | - | - | - |
| 1777920976 | 16.11° C | 59% | 1013.4 hPa | - | - | - | - |
| 1777920019 | 17.78° C | 55% | 1013.1 hPa | - | - | - | - |
| 1777919062 | 19.44° C | 49% | 1012.7 hPa | - | - | - | - |
| 1777918112 | 20° C | 48% | 1012.5 hPa | - | - | - | - |
| 1777918104 | 20° C | 48% | 1012.5 hPa | - | - | - | - |
| 1777917147 | 22.22° C | 41% | 1012.2 hPa | - | - | - | - |
| 1777916198 | 23.33° C | 38% | 1012.1 hPa | - | - | - | - |
| 1777916191 | 23.33° C | 38% | 1012.1 hPa | - | - | - | - |
| 1777915234 | 25.56° C | 34% | 1011.6 hPa | - | - | - | - |
| 1777913319 | 25.56° C | 32% | 1011.6 hPa | - | - | - | - |
| 1777912363 | 27.22° C | 31% | 1011.5 hPa | - | - | - | - |
| 1777911413 | 27.22° C | 32% | 1011.5 hPa | - | - | - | - |
* Rain since midnight (hover to see other rain measurements)
** Current wind speed in m/s (hover to see current wind gust speed)